Time;durP1;ratioP1;P1;durP2;ratioP2;P2;SDS_P1;SDS_P2;PMS_P1;PMS_P2;Temp;Humidity;BMP_temperature;BMP_pressure;BME280_temperature;BME280_humidity;BME280_pressure;Samples;Min_cycle;Max_cycle;Signal;HPM_P1;HPM_P2
2023/12/19 00:00:46;;;;;;;;;;;;;;;8.93;59.29;101621.44;4970259;28;7106;-81
2023/12/19 00:03:11;;;;;;;;;;;;;;;8.95;59.02;101614.78;4986012;28;7200;-81
2023/12/19 00:05:37;;;;;;;;;;;;;;;8.95;59.15;101601.13;4967377;28;7208;-81
2023/12/19 00:08:03;;;;;;;;;;;;;;;8.95;58.99;101599.44;4982766;28;8964;-81
2023/12/19 00:10:29;;;;;;;;;;;;;;;8.97;58.71;101608.09;4983248;28;7201;-81
2023/12/19 00:12:55;;;;;;;;;;;;;;;8.96;58.30;101603.75;4974057;28;8491;-81
2023/12/19 00:15:22;;;;;;;;;;;;;;;8.96;59.03;101590.09;4969435;28;6816;-81
2023/12/19 00:17:48;;;;;;;;;;;;;;;8.96;58.64;101587.56;4984423;28;7004;-81
2023/12/19 00:20:13;;;;;;;;;;;;;;;8.94;59.10;101579.75;4958631;28;6851;-81
2023/12/19 00:22:39;;;;;;;;;;;;;;;8.94;59.46;101579.75;4984715;28;6781;-84
2023/12/19 00:25:05;;;;;;;;;;;;;;;8.93;59.32;101567.75;4968664;28;7019;-83
2023/12/19 00:27:30;;;;;;;;;;;;;;;8.92;59.73;101553.19;4967711;28;6886;-87
2023/12/19 00:29:56;;;;;;;;;;;;;;;8.92;59.28;101562.50;4967629;28;6800;-87
2023/12/19 00:32:21;;;;;;;;;;;;;;;8.92;60.01;101563.41;4967536;28;6784;-86
2023/12/19 00:34:47;;;;;;;;;;;;;;;8.92;59.04;101554.84;4972805;28;6977;-86
2023/12/19 00:37:13;;;;;;;;;;;;;;;8.93;59.34;101549.84;4965286;28;8417;-88
2023/12/19 00:39:39;;;;;;;;;;;;;;;8.94;59.49;101564.41;4985642;28;6822;-84
2023/12/19 00:42:04;;;;;;;;;;;;;;;8.96;59.27;101544.06;4966997;28;6788;-86
2023/12/19 00:44:30;;;;;;;;;;;;;;;8.98;59.98;101528.06;4967083;28;6946;-87
2023/12/19 00:46:55;;;;;;;;;;;;;;;9.01;59.50;101533.41;4968049;28;6825;-86
2023/12/19 00:49:21;;;;;;;;;;;;;;;9.06;59.83;101527.72;4976126;28;7236;-82
2023/12/19 00:51:46;;;;;;;;;;;;;;;9.08;59.77;101513.38;4983584;28;8491;-84
2023/12/19 00:54:12;;;;;;;;;;;;;;;9.11;59.71;101518.72;4982835;28;6796;-88
2023/12/19 00:56:40;;;;;;;;;;;;;;;9.14;59.66;101513.81;4985006;28;7082;-85
2023/12/19 00:59:06;;;;;;;;;;;;;;;9.16;59.78;101510.59;4969051;28;7615;-88
2023/12/19 01:01:31;;;;;;;;;;;;;;;9.22;60.08;101511.78;4966990;28;6780;-84
2023/12/19 01:03:57;;;;;;;;;;;;;;;9.24;59.35;101505.16;4979112;28;6795;-87
2023/12/19 01:06:22;;;;;;;;;;;;;;;9.25;60.06;101518.03;4971844;28;8512;-87
2023/12/19 01:08:48;;;;;;;;;;;;;;;9.27;59.85;101513.03;4966601;28;6863;-86
2023/12/19 01:11:13;;;;;;;;;;;;;;;9.26;59.65;101519.81;4966921;28;7082;-84
2023/12/19 01:13:39;;;;;;;;;;;;;;;9.28;59.39;101518.25;4981891;28;7413;-86
2023/12/19 01:16:05;;;;;;;;;;;;;;;9.30;60.19;101532.06;4967769;28;6843;-86
2023/12/19 01:18:31;;;;;;;;;;;;;;;9.30;60.50;101508.13;4965849;28;8279;-86
2023/12/19 01:20:56;;;;;;;;;;;;;;;9.31;59.53;101510.78;4962850;28;7031;-85
2023/12/19 01:23:23;;;;;;;;;;;;;;;9.33;59.23;101513.47;4982282;28;6780;-86
2023/12/19 01:25:48;;;;;;;;;;;;;;;9.33;59.76;101508.34;4981681;28;7191;-87
2023/12/19 01:28:14;;;;;;;;;;;;;;;9.33;60.08;101492.09;4960080;28;8415;-86
2023/12/19 01:30:40;;;;;;;;;;;;;;;9.34;59.58;101486.19;4964789;28;7251;-87
2023/12/19 01:33:07;;;;;;;;;;;;;;;9.33;60.23;101497.22;4965939;28;7040;-81
2023/12/19 01:35:33;;;;;;;;;;;;;;;9.33;59.63;101499.78;4955393;28;8856;-81
2023/12/19 01:37:58;;;;;;;;;;;;;;;9.33;59.42;101494.66;4957376;28;8546;-81
2023/12/19 01:40:27;;;;;;;;;;;;;;;9.33;59.59;101503.25;4962323;28;6788;-81
2023/12/19 01:42:52;;;;;;;;;;;;;;;9.34;60.03;101499.00;4977578;28;6852;-81
2023/12/19 01:45:19;;;;;;;;;;;;;;;9.35;59.71;101508.44;4962656;28;7045;-81
2023/12/19 01:47:45;;;;;;;;;;;;;;;9.36;59.61;101505.09;4980233;28;7066;-81
2023/12/19 01:50:12;;;;;;;;;;;;;;;9.37;59.64;101501.78;4961920;28;7442;-81
2023/12/19 01:52:45;;;;;;;;;;;;;;;9.37;59.52;101497.53;4963274;28;7226;-81
2023/12/19 01:55:14;;;;;;;;;;;;;;;9.40;59.90;101496.88;4978442;28;6812;-81
2023/12/19 01:57:40;;;;;;;;;;;;;;;9.40;59.53;101495.19;4972456;28;8434;-81
2023/12/19 02:00:08;;;;;;;;;;;;;;;9.43;60.00;101500.53;4960566;28;7154;-81
2023/12/19 02:02:34;;;;;;;;;;;;;;;9.45;59.95;101500.63;4979733;28;8602;-81
2023/12/19 02:05:00;;;;;;;;;;;;;;;9.48;59.41;101517.88;4979416;28;6792;-81
2023/12/19 02:07:26;;;;;;;;;;;;;;;9.49;59.54;101506.84;4963853;28;6788;-81
2023/12/19 02:09:52;;;;;;;;;;;;;;;9.51;60.20;101500.16;4981926;28;6787;-81
2023/12/19 02:12:17;;;;;;;;;;;;;;;9.52;59.68;101492.63;4960524;28;6966;-81
2023/12/19 02:14:44;;;;;;;;;;;;;;;9.53;59.18;101479.03;4979688;28;6827;-81
2023/12/19 02:17:11;;;;;;;;;;;;;;;9.51;59.50;101472.91;4962340;28;6804;-81
2023/12/19 02:19:46;;;;;;;;;;;;;;;9.53;59.72;101473.91;4973462;28;7178;-81
2023/12/19 02:22:13;;;;;;;;;;;;;;;9.52;59.24;101463.59;4962381;28;7360;-81
2023/12/19 02:24:39;;;;;;;;;;;;;;;9.53;59.44;101466.22;4961902;28;6807;-81
2023/12/19 02:27:05;;;;;;;;;;;;;;;9.52;59.34;101450.78;4978649;28;7009;-81
2023/12/19 02:29:30;;;;;;;;;;;;;;;9.53;59.00;101456.00;4961901;28;6807;-81
2023/12/19 02:31:57;;;;;;;;;;;;;;;9.54;59.35;101455.22;4961611;28;7019;-81
2023/12/19 02:34:23;;;;;;;;;;;;;;;9.54;59.54;101446.66;4977979;28;7154;-81
2023/12/19 02:36:48;;;;;;;;;;;;;;;9.55;59.46;101444.19;4976739;28;6971;-81
2023/12/19 02:39:14;;;;;;;;;;;;;;;9.57;60.18;101445.22;4959893;28;7583;-81
2023/12/19 02:41:39;;;;;;;;;;;;;;;9.58;59.42;101446.97;4961431;28;6784;-82
2023/12/19 02:44:05;;;;;;;;;;;;;;;9.61;60.08;101430.03;4982358;28;6783;-81
2023/12/19 02:46:32;;;;;;;;;;;;;;;9.62;59.31;101426.69;4962293;28;8040;-81
2023/12/19 02:48:58;;;;;;;;;;;;;;;9.63;60.18;101424.25;4978215;28;7082;-81
2023/12/19 02:51:24;;;;;;;;;;;;;;;9.66;59.38;101421.03;4962101;28;8886;-82
2023/12/19 02:53:51;;;;;;;;;;;;;;;9.67;59.59;101415.13;4979501;28;6811;-81
2023/12/19 02:56:16;;;;;;;;;;;;;;;9.69;60.05;101403.31;4962024;28;8342;-81
2023/12/19 02:58:43;;;;;;;;;;;;;;;9.71;59.71;101388.94;4958840;28;9161;-81
2023/12/19 03:01:09;;;;;;;;;;;;;;;9.75;60.07;101392.59;4961779;28;8440;-82
2023/12/19 03:03:34;;;;;;;;;;;;;;;9.78;59.80;101383.44;4961717;28;6788;-81
2023/12/19 03:06:00;;;;;;;;;;;;;;;9.80;59.98;101371.63;4961650;28;8729;-81
2023/12/19 03:08:26;;;;;;;;;;;;;;;9.83;59.95;101360.72;4963094;28;8909;-81
2023/12/19 03:10:51;;;;;;;;;;;;;;;9.85;59.74;101361.69;4982945;28;6780;-81
2023/12/19 03:13:17;;;;;;;;;;;;;;;9.86;59.66;101361.81;4968405;28;6815;-81
2023/12/19 03:15:42;;;;;;;;;;;;;;;9.89;60.45;101362.78;4968371;28;10282;-81
2023/12/19 03:18:08;;;;;;;;;;;;;;;9.92;59.68;101374.13;4969277;28;6953;-81
2023/12/19 03:20:33;;;;;;;;;;;;;;;9.94;60.05;101371.63;4978032;28;6942;-82
2023/12/19 03:22:59;;;;;;;;;;;;;;;9.95;59.85;101371.75;4989637;28;7010;-81
2023/12/19 03:25:24;;;;;;;;;;;;;;;9.98;59.86;101356.56;4967674;28;7247;-81
2023/12/19 03:27:50;;;;;;;;;;;;;;;10.01;60.27;101361.03;4975623;28;7222;-81
2023/12/19 03:30:15;;;;;;;;;;;;;;;10.03;59.55;101356.00;4967872;28;6779;-81
2023/12/19 03:32:41;;;;;;;;;;;;;;;10.04;60.33;101356.09;4979049;28;8498;-81
2023/12/19 03:35:07;;;;;;;;;;;;;;;10.07;59.81;101352.84;4994311;28;6768;-81
2023/12/19 03:37:33;;;;;;;;;;;;;;;10.09;60.31;101359.84;4974847;28;6796;-81
2023/12/19 03:39:58;;;;;;;;;;;;;;;10.10;60.39;101337.69;4969345;28;8370;-81
2023/12/19 03:42:24;;;;;;;;;;;;;;;10.12;60.36;101344.66;4980199;28;8428;-81
2023/12/19 03:44:49;;;;;;;;;;;;;;;10.12;59.85;101343.81;4989462;28;6780;-81
2023/12/19 03:47:15;;;;;;;;;;;;;;;10.10;59.73;101341.13;4986976;28;6961;-81
2023/12/19 03:49:40;;;;;;;;;;;;;;;10.07;59.78;101335.81;4992585;28;6854;-81
2023/12/19 03:52:07;;;;;;;;;;;;;;;10.04;60.21;101335.59;4966826;28;6951;-81
2023/12/19 03:54:33;;;;;;;;;;;;;;;10.03;60.22;101328.72;4990124;28;7876;-81
2023/12/19 03:56:58;;;;;;;;;;;;;;;10.01;60.11;101335.41;4972563;28;6987;-81
2023/12/19 03:59:24;;;;;;;;;;;;;;;9.99;60.57;101330.22;4973957;28;8469;-81
2023/12/19 04:01:51;;;;;;;;;;;;;;;9.99;60.69;101321.63;4970127;28;6851;-81
2023/12/19 04:04:17;;;;;;;;;;;;;;;9.98;60.94;101320.72;4972420;28;7112;-81
2023/12/19 04:06:43;;;;;;;;;;;;;;;9.98;60.81;101328.41;4974941;28;6792;-81
2023/12/19 04:09:12;;;;;;;;;;;;;;;9.99;60.79;101321.63;4968599;28;6807;-81
2023/12/19 04:11:38;;;;;;;;;;;;;;;10.00;60.62;101324.28;4972192;28;6788;-81
2023/12/19 04:14:05;;;;;;;;;;;;;;;10.01;61.17;101320.03;4969524;28;7186;-81
2023/12/19 04:16:31;;;;;;;;;;;;;;;10.03;61.09;101310.78;4985071;28;6808;-81
2023/12/19 04:18:57;;;;;;;;;;;;;;;10.03;61.18;101313.34;4986083;28;7170;-81
2023/12/19 04:21:22;;;;;;;;;;;;;;;10.05;60.80;101316.91;4977791;28;6968;-81
2023/12/19 04:23:48;;;;;;;;;;;;;;;10.05;61.26;101310.88;4970563;28;6999;-81
2023/12/19 04:26:19;;;;;;;;;;;;;;;10.05;61.51;101304.09;4975964;28;7241;-81
2023/12/19 04:28:44;;;;;;;;;;;;;;;10.05;61.45;101303.19;4958369;28;8561;-81
2023/12/19 04:31:10;;;;;;;;;;;;;;;10.04;61.62;101309.97;4942710;28;7006;-81
2023/12/19 04:33:35;;;;;;;;;;;;;;;10.03;61.71;101303.09;4984832;28;6934;-81
2023/12/19 04:36:01;;;;;;;;;;;;;;;10.04;61.34;101294.63;4970562;28;6867;-82
2023/12/19 04:38:26;;;;;;;;;;;;;;;10.03;61.24;101294.53;4982939;28;7187;-81
2023/12/19 04:40:52;;;;;;;;;;;;;;;10.03;61.41;101277.47;4968826;28;6800;-81
2023/12/19 04:43:17;;;;;;;;;;;;;;;10.04;61.91;101275.81;4978767;28;7217;-81
2023/12/19 04:45:43;;;;;;;;;;;;;;;10.03;61.73;101272.34;4979944;28;6816;-81
2023/12/19 04:48:08;;;;;;;;;;;;;;;10.04;61.35;101263.88;4971196;28;7206;-81
2023/12/19 04:50:34;;;;;;;;;;;;;;;10.05;61.61;101264.78;4978079;28;8483;-80
2023/12/19 04:52:59;;;;;;;;;;;;;;;10.03;61.91;101259.56;4971995;28;6784;-81
2023/12/19 04:55:25;;;;;;;;;;;;;;;10.04;62.15;101263.00;4975436;28;6811;-81
2023/12/19 04:57:51;;;;;;;;;;;;;;;10.04;61.67;101269.00;4962607;28;6983;-81
2023/12/19 05:00:16;;;;;;;;;;;;;;;10.04;61.77;101263.88;4957445;28;8523;-81
2023/12/19 05:02:42;;;;;;;;;;;;;;;10.04;61.73;101263.88;4990774;28;6784;-81
2023/12/19 05:05:07;;;;;;;;;;;;;;;10.04;61.74;101258.75;4983007;28;7142;-82
2023/12/19 05:07:33;;;;;;;;;;;;;;;10.05;61.99;101257.09;4970097;28;6784;-81
2023/12/19 05:09:58;;;;;;;;;;;;;;;10.06;61.73;101266.56;4966685;28;6796;-81
2023/12/19 05:12:24;;;;;;;;;;;;;;;10.06;62.18;101257.22;4971160;28;7400;-81
2023/12/19 05:14:50;;;;;;;;;;;;;;;10.07;61.99;101248.72;4970472;28;8426;-81
2023/12/19 05:17:15;;;;;;;;;;;;;;;10.05;61.43;101234.94;4971524;28;6852;-81
2023/12/19 05:19:41;;;;;;;;;;;;;;;10.07;61.64;101238.50;4971172;28;7865;-81
2023/12/19 05:22:06;;;;;;;;;;;;;;;10.09;62.11;101242.03;4987691;28;7279;-81
2023/12/19 05:24:33;;;;;;;;;;;;;;;10.12;61.87;101237.09;4970924;28;6799;-81
2023/12/19 05:26:59;;;;;;;;;;;;;;;10.13;61.99;101227.75;4988505;28;7260;-81
2023/12/19 05:29:25;;;;;;;;;;;;;;;10.13;61.42;101218.34;4972300;28;6844;-81
2023/12/19 05:31:53;;;;;;;;;;;;;;;10.17;61.87;101219.44;4971200;28;6795;-81
2023/12/19 05:34:18;;;;;;;;;;;;;;;10.16;61.69;101204.00;4975305;28;7407;-79
2023/12/19 05:36:46;;;;;;;;;;;;;;;10.20;61.46;101198.25;5006954;23;7011;-81
2023/12/19 05:39:17;;;;;;;;;;;;;;;10.23;61.76;101195.88;5001049;28;8478;-81
2023/12/19 05:41:43;;;;;;;;;;;;;;;10.24;61.69;101188.31;5017497;28;6807;-81
2023/12/19 05:44:08;;;;;;;;;;;;;;;10.25;61.24;101186.63;5033186;28;6851;-82
2023/12/19 05:46:34;;;;;;;;;;;;;;;10.28;61.56;101189.38;5033204;28;6864;-81
2023/12/19 05:49:00;;;;;;;;;;;;;;;10.28;61.53;101184.25;5007638;28;6965;-81
2023/12/19 05:51:26;;;;;;;;;;;;;;;10.29;61.79;101178.34;5000544;28;8421;-81
2023/12/19 05:53:51;;;;;;;;;;;;;;;10.32;61.29;101185.34;5033791;28;7005;-82
2023/12/19 05:56:17;;;;;;;;;;;;;;;10.32;61.49;101167.41;5020788;28;7168;-81
2023/12/19 05:58:44;;;;;;;;;;;;;;;10.32;61.43;101187.91;5022546;28;8629;-81
2023/12/19 06:01:10;;;;;;;;;;;;;;;10.33;61.00;101187.97;5022693;28;6946;-81
2023/12/19 06:03:35;;;;;;;;;;;;;;;10.34;61.16;101202.59;5016203;28;8381;-81
2023/12/19 06:06:01;;;;;;;;;;;;;;;10.34;61.32;101202.59;5025643;28;7139;-81
2023/12/19 06:08:26;;;;;;;;;;;;;;;10.36;60.79;101208.69;5031977;28;6779;-81
2023/12/19 06:10:54;;;;;;;;;;;;;;;10.39;60.88;101220.81;5007272;28;8538;-81
2023/12/19 06:13:20;;;;;;;;;;;;;;;10.41;60.91;101240.63;5008279;28;7130;-80
2023/12/19 06:15:45;;;;;;;;;;;;;;;10.42;60.65;101231.28;5002379;28;8437;-80
2023/12/19 06:18:11;;;;;;;;;;;;;;;10.45;60.40;101228.00;5019243;28;7141;-80
2023/12/19 06:20:36;;;;;;;;;;;;;;;10.46;60.62;101240.03;5007762;28;8661;-79
2023/12/19 06:23:02;;;;;;;;;;;;;;;10.47;60.60;101237.53;5001703;28;8563;-81
2023/12/19 06:25:27;;;;;;;;;;;;;;;10.49;60.38;101235.09;5009602;28;8512;-79
2023/12/19 06:27:55;;;;;;;;;;;;;;;10.49;60.25;101237.66;5043185;28;6970;-82
2023/12/19 06:30:21;;;;;;;;;;;;;;;10.49;60.87;101225.75;5029361;28;6796;-80
2023/12/19 06:32:47;;;;;;;;;;;;;;;10.52;60.24;101228.47;5017515;28;8641;-80
2023/12/19 06:35:13;;;;;;;;;;;;;;;10.53;60.26;101219.13;5029843;28;7273;-87
2023/12/19 06:37:38;;;;;;;;;;;;;;;10.54;60.82;101206.38;5013028;23;7158;-82
2023/12/19 06:40:04;;;;;;;;;;;;;;;10.54;60.03;101202.94;4997748;28;7379;-81
2023/12/19 06:42:30;;;;;;;;;;;;;;;10.53;60.67;101203.75;4996618;28;6999;-81
2023/12/19 06:44:56;;;;;;;;;;;;;;;10.52;60.10;101189.13;5012740;23;8464;-79
2023/12/19 06:47:22;;;;;;;;;;;;;;;10.49;59.87;101176.13;4997773;28;6811;-80
2023/12/19 06:49:47;;;;;;;;;;;;;;;10.47;60.16;101177.72;4980842;28;8940;-79
2023/12/19 06:52:13;;;;;;;;;;;;;;;10.47;60.26;101175.16;4967256;28;8700;-79
2023/12/19 06:54:38;;;;;;;;;;;;;;;10.45;60.15;101184.44;4994169;28;8453;-79
2023/12/19 06:57:05;;;;;;;;;;;;;;;10.44;59.89;101164.75;5001841;28;8500;-81
2023/12/19 06:59:34;;;;;;;;;;;;;;;10.42;60.16;101155.25;4977060;28;8553;-79
2023/12/19 07:01:59;;;;;;;;;;;;;;;10.40;60.21;101153.38;4992464;28;6811;-80
2023/12/19 07:04:26;;;;;;;;;;;;;;;10.42;60.39;101136.44;5009949;28;6796;-79
2023/12/19 07:06:51;;;;;;;;;;;;;;;10.42;59.94;101142.44;4983736;28;8510;-80
2023/12/19 07:09:17;;;;;;;;;;;;;;;10.43;60.64;101145.91;5003081;28;6787;-82
2023/12/19 07:11:42;;;;;;;;;;;;;;;10.46;60.34;101135.81;4992476;28;8910;-79
2023/12/19 07:14:08;;;;;;;;;;;;;;;10.47;60.34;101158.09;4999051;28;8391;-81
2023/12/19 07:16:35;;;;;;;;;;;;;;;10.48;60.45;101153.88;4989325;28;8758;-81
2023/12/19 07:19:04;;;;;;;;;;;;;;;10.51;60.39;101159.16;4991675;28;9106;-81
2023/12/19 07:21:32;;;;;;;;;;;;;;;10.52;60.19;101151.59;4999075;28;6799;-82
2023/12/19 07:23:59;;;;;;;;;;;;;;;10.56;60.02;101156.09;4982586;28;6796;-82
2023/12/19 07:26:27;;;;;;;;;;;;;;;10.61;60.65;101150.38;4992815;28;8454;-81
2023/12/19 07:28:53;;;;;;;;;;;;;;;10.64;60.15;101141.19;4991556;28;6994;-81
2023/12/19 07:31:27;;;;;;;;;;;;;;;10.68;60.08;101147.38;5008158;28;8520;-81
2023/12/19 07:34:00;;;;;;;;;;;;;;;10.72;60.01;101133.03;4984071;28;7003;-82
2023/12/19 07:36:27;;;;;;;;;;;;;;;10.75;60.50;101126.41;4988864;28;7211;-81
2023/12/19 07:38:52;;;;;;;;;;;;;;;10.76;60.40;101125.63;4982759;28;6816;-81
2023/12/19 07:41:18;;;;;;;;;;;;;;;10.80;59.97;101132.72;4991823;28;6803;-81
2023/12/19 07:43:44;;;;;;;;;;;;;;;10.83;59.97;101153.41;4998587;28;7058;-81
2023/12/19 07:46:10;;;;;;;;;;;;;;;10.89;59.82;101157.13;4964812;28;9407;-81
2023/12/19 07:48:36;;;;;;;;;;;;;;;10.91;59.98;101141.06;4961248;28;8647;-81
2023/12/19 07:51:03;;;;;;;;;;;;;;;10.95;59.75;101154.91;4960835;28;8311;-81
2023/12/19 07:53:29;;;;;;;;;;;;;;;10.99;59.96;101169.69;4977394;28;8646;-81
2023/12/19 07:56:00;;;;;;;;;;;;;;;11.01;59.59;101149.25;4971417;28;8486;-82
2023/12/19 07:58:26;;;;;;;;;;;;;;;11.04;59.45;101157.16;4959075;28;8527;-82
2023/12/19 08:00:52;;;;;;;;;;;;;;;11.05;59.59;101146.94;4971277;28;8867;-82
2023/12/19 08:03:18;;;;;;;;;;;;;;;11.09;59.45;101150.59;4979234;28;7295;-81
2023/12/19 08:05:50;;;;;;;;;;;;;;;11.11;59.43;101137.06;4961756;28;8493;-81
2023/12/19 08:08:17;;;;;;;;;;;;;;;11.14;59.57;101144.06;4986096;28;8931;-81
2023/12/19 08:10:44;;;;;;;;;;;;;;;11.17;59.37;101149.34;4957051;28;7334;-81
2023/12/19 08:13:10;;;;;;;;;;;;;;;11.22;59.31;101141.91;4970634;28;9429;-81
2023/12/19 08:15:35;;;;;;;;;;;;;;;11.24;59.66;101128.38;4974269;28;7160;-81
2023/12/19 08:18:01;;;;;;;;;;;;;;;11.29;59.08;101132.88;4954737;28;7905;-81
2023/12/19 08:20:27;;;;;;;;;;;;;;;11.32;59.49;101127.94;4970402;28;8478;-81
2023/12/19 08:22:52;;;;;;;;;;;;;;;11.34;59.04;101124.66;4978526;28;6784;-79
2023/12/19 08:25:18;;;;;;;;;;;;;;;11.38;58.61;101124.03;4976877;28;6792;-79
2023/12/19 08:27:44;;;;;;;;;;;;;;;11.44;59.29;101118.34;4978348;28;6788;-80
2023/12/19 08:30:12;;;;;;;;;;;;;;;11.48;58.81;101110.03;4976056;28;6779;-79
2023/12/19 08:32:38;;;;;;;;;;;;;;;11.49;58.99;101106.69;4974551;28;11580;-79
2023/12/19 08:35:05;;;;;;;;;;;;;;;11.55;59.03;101092.41;4957466;28;8452;-85
2023/12/19 08:37:31;;;;;;;;;;;;;;;11.58;58.53;101092.56;4958995;28;6816;-87
2023/12/19 08:39:57;;;;;;;;;;;;;;;11.61;58.34;101082.47;4986317;28;8212;-85
2023/12/19 08:42:23;;;;;;;;;;;;;;;11.62;58.39;101090.25;4966665;28;8417;-89
2023/12/19 08:44:53;;;;;;;;;;;;;;;11.66;58.63;101079.34;4965069;28;8830;-87
2023/12/19 08:47:18;;;;;;;;;;;;;;;11.70;58.57;101080.41;4980771;28;7163;-88
2023/12/19 08:49:44;;;;;;;;;;;;;;;11.73;58.03;101078.00;4964930;28;7221;-89
2023/12/19 08:52:10;;;;;;;;;;;;;;;11.77;58.32;101079.06;4974684;28;7348;-89
2023/12/19 08:54:36;;;;;;;;;;;;;;;11.81;58.25;101084.44;4975816;28;8356;-85
2023/12/19 08:57:01;;;;;;;;;;;;;;;11.85;58.54;101069.19;4993535;28;8360;-89
2023/12/19 08:59:27;;;;;;;;;;;;;;;11.91;58.46;101080.66;4975245;28;7076;-87
2023/12/19 09:01:53;;;;;;;;;;;;;;;11.93;58.51;101062.78;4975787;28;7072;-90
2023/12/19 09:04:19;;;;;;;;;;;;;;;11.95;58.53;101074.91;4961738;28;7137;-88
2023/12/19 09:06:45;;;;;;;;;;;;;;;11.97;58.24;101069.81;4992360;28;6868;-84
2023/12/19 09:09:13;;;;;;;;;;;;;;;12.02;57.76;101044.38;4980178;28;8590;-89
2023/12/19 09:11:39;;;;;;;;;;;;;;;12.03;58.20;101057.34;4958713;28;7159;-85
2023/12/19 09:14:04;;;;;;;;;;;;;;;12.06;58.04;101044.66;4960834;28;8471;-89
2023/12/19 09:16:30;;;;;;;;;;;;;;;12.10;57.55;101048.25;4960504;28;8419;-90
2023/12/19 09:18:55;;;;;;;;;;;;;;;12.14;57.56;101041.59;4965233;28;8519;-90
2023/12/19 09:21:21;;;;;;;;;;;;;;;12.16;57.76;101038.31;4959532;28;7184;-90
2023/12/19 09:23:47;;;;;;;;;;;;;;;12.21;57.31;101039.41;4978846;28;8558;-89
2023/12/19 09:26:15;;;;;;;;;;;;;;;12.22;57.54;101041.22;4977830;28;6969;-87
2023/12/19 09:28:40;;;;;;;;;;;;;;;12.25;57.54;101045.59;4962336;28;7026;-85
2023/12/19 09:31:08;;;;;;;;;;;;;;;12.26;57.46;101013.97;4961315;28;8422;-88
2023/12/19 09:33:38;;;;;;;;;;;;;;;12.28;56.56;101003.75;4979925;28;7162;-88
2023/12/19 09:36:05;;;;;;;;;;;;;;;12.32;56.48;101021.13;4978497;28;8539;-88
2023/12/19 09:38:31;;;;;;;;;;;;;;;12.33;57.08;101028.03;4991714;28;7286;-90
2023/12/19 09:40:57;;;;;;;;;;;;;;;12.35;56.85;101032.41;4959254;28;8403;-87
2023/12/19 09:43:23;;;;;;;;;;;;;;;12.36;56.99;101031.63;4980494;28;8715;-87
2023/12/19 09:45:50;;;;;;;;;;;;;;;12.40;56.88;101031.78;4985741;28;8700;-86
2023/12/19 09:48:15;;;;;;;;;;;;;;;12.39;57.19;101007.75;4995022;28;7119;-88
2023/12/19 09:50:43;;;;;;;;;;;;;;;12.41;56.50;101005.28;4977615;28;6949;-89
2023/12/19 09:53:10;;;;;;;;;;;;;;;12.42;56.29;101001.91;4972388;28;6886;-82
2023/12/19 09:55:43;;;;;;;;;;;;;;;12.41;56.23;100995.88;4969466;28;8445;-83
2023/12/19 09:58:12;;;;;;;;;;;;;;;12.43;56.00;100983.97;4982460;28;6980;-82
2023/12/19 10:00:44;;;;;;;;;;;;;;;12.45;55.93;100976.31;4976921;28;8465;-87
2023/12/19 10:03:11;;;;;;;;;;;;;;;12.47;56.43;100967.88;4963998;28;7257;-81
2023/12/19 10:05:36;;;;;;;;;;;;;;;12.48;56.09;100979.06;4959033;28;8625;-82
2023/12/19 10:08:03;;;;;;;;;;;;;;;12.50;56.77;100980.03;4995115;28;8632;-83
2023/12/19 10:10:48;;;;;;;;;;;;;;;12.52;56.40;100983.53;4962634;28;8784;-84
2023/12/19 10:13:26;;;;;;;;;;;;;;;12.53;55.77;100982.72;4979206;28;6812;-85
2023/12/19 10:16:06;;;;;;;;;;;;;;;12.55;56.17;100973.41;4970070;28;8478;-83
2023/12/19 10:18:32;;;;;;;;;;;;;;;12.54;56.32;100971.63;4997928;28;7285;-84
2023/12/19 10:21:13;;;;;;;;;;;;;;;12.57;55.62;100961.53;4993992;28;6961;-83
2023/12/19 10:23:43;;;;;;;;;;;;;;;12.62;56.23;100964.31;4995241;28;6832;-82
2023/12/19 10:26:09;;;;;;;;;;;;;;;12.60;55.25;100955.63;4982368;28;6867;-83
2023/12/19 10:28:37;;;;;;;;;;;;;;;12.60;55.60;100941.09;4972719;28;8428;-83
2023/12/19 10:31:05;;;;;;;;;;;;;;;12.62;55.54;100949.75;4984012;28;7210;-83
2023/12/19 10:33:45;;;;;;;;;;;;;;;12.61;55.38;100950.56;4988430;28;7331;-83
2023/12/19 10:36:26;;;;;;;;;;;;;;;12.61;55.33;100944.56;4979348;28;6995;-83
2023/12/19 10:38:53;;;;;;;;;;;;;;;12.59;54.98;100946.16;4978497;28;7230;-82
2023/12/19 10:41:21;;;;;;;;;;;;;;;12.58;55.00;100932.44;4971653;28;7207;-83
2023/12/19 10:43:52;;;;;;;;;;;;;;;12.54;55.50;100925.34;4989349;28;7004;-83
2023/12/19 10:46:19;;;;;;;;;;;;;;;12.52;55.08;100923.53;4979129;28;8471;-83
2023/12/19 10:48:46;;;;;;;;;;;;;;;12.47;54.99;100913.91;4972344;28;6990;-83
2023/12/19 10:51:15;;;;;;;;;;;;;;;12.44;54.90;100918.00;4964071;28;7000;-83
2023/12/19 10:53:49;;;;;;;;;;;;;;;12.41;55.46;100908.47;4980803;28;6987;-84
2023/12/19 10:56:16;;;;;;;;;;;;;;;12.34;56.29;100893.56;4996002;28;7054;-83
2023/12/19 10:58:48;;;;;;;;;;;;;;;12.27;55.66;100900.09;4991839;28;6811;-83
2023/12/19 11:01:19;;;;;;;;;;;;;;;12.21;56.30;100898.06;4970182;28;6997;-83
2023/12/19 11:03:54;;;;;;;;;;;;;;;12.14;56.40;100887.44;4958456;28;7161;-84
2023/12/19 11:06:23;;;;;;;;;;;;;;;12.10;56.74;100885.53;4965204;28;7448;-83
2023/12/19 11:08:53;;;;;;;;;;;;;;;12.03;57.02;100885.22;4968252;28;7393;-83
2023/12/19 11:11:26;;;;;;;;;;;;;;;11.97;57.16;100887.44;4959147;28;6832;-83
2023/12/19 11:13:53;;;;;;;;;;;;;;;11.93;56.60;100878.72;4940059;28;8444;-83
2023/12/19 11:16:27;;;;;;;;;;;;;;;11.91;57.75;100869.16;4963392;28;6839;-82
2023/12/19 11:19:01;;;;;;;;;;;;;;;11.90;57.83;100867.41;4950785;28;7234;-83
2023/12/19 11:21:38;;;;;;;;;;;;;;;11.89;57.59;100851.09;4964057;28;6800;-83
2023/12/19 11:24:07;;;;;;;;;;;;;;;11.95;58.34;100845.38;4975537;28;8381;-83
2023/12/19 11:26:44;;;;;;;;;;;;;;;11.99;57.38;100851.56;4942026;28;6982;-82
2023/12/19 11:29:45;;;;;;;;;;;;;;;12.06;57.42;100839.09;4974964;28;7305;-83
2023/12/19 11:32:26;;;;;;;;;;;;;;;12.15;56.90;100842.94;4982202;28;7003;-83
2023/12/19 11:34:51;;;;;;;;;;;;;;;12.19;57.65;100827.75;4983334;28;7146;-84
2023/12/19 11:37:21;;;;;;;;;;;;;;;12.23;57.18;100818.50;4981818;28;7194;-83
2023/12/19 11:39:46;;;;;;;;;;;;;;;12.27;57.20;100812.72;4999796;28;7223;-82
2023/12/19 11:42:51;;;;;;;;;;;;;;;12.28;57.70;100821.28;4998350;28;6938;-83
2023/12/19 11:45:16;;;;;;;;;;;;;;;12.29;57.77;100805.94;4993457;28;7165;-83
2023/12/19 11:47:42;;;;;;;;;;;;;;;12.33;57.10;100812.97;4983332;28;8477;-83
2023/12/19 11:50:07;;;;;;;;;;;;;;;12.41;57.01;100809.91;4991454;28;7180;-82
2023/12/19 11:52:37;;;;;;;;;;;;;;;12.46;56.44;100806.72;4996706;28;7045;-82
2023/12/19 11:55:05;;;;;;;;;;;;;;;12.52;56.03;100813.84;4998786;28;7002;-83
2023/12/19 11:57:32;;;;;;;;;;;;;;;12.53;56.06;100800.19;4992063;28;7236;-83
2023/12/19 12:00:00;;;;;;;;;;;;;;;12.55;56.74;100797.69;4979979;28;7085;-83
2023/12/19 12:02:29;;;;;;;;;;;;;;;12.56;56.10;100790.06;4980158;28;7060;-83
2023/12/19 12:05:05;;;;;;;;;;;;;;;12.59;56.46;100787.63;4985084;28;7213;-82
2023/12/19 12:07:31;;;;;;;;;;;;;;;12.59;55.86;100774.75;4965871;28;8615;-83
2023/12/19 12:10:06;;;;;;;;;;;;;;;12.53;55.55;100766.75;4982954;28;8561;-82
2023/12/19 12:12:35;;;;;;;;;;;;;;;12.43;56.09;100762.00;4996018;28;6831;-82
2023/12/19 12:15:21;;;;;;;;;;;;;;;12.32;55.85;100758.97;4980289;28;6907;-84
2023/12/19 12:17:49;;;;;;;;;;;;;;;12.25;56.44;100756.91;4991313;28;7229;-85
2023/12/19 12:20:15;;;;;;;;;;;;;;;12.25;56.38;100765.47;4967620;28;6999;-82
2023/12/19 12:22:40;;;;;;;;;;;;;;;12.22;56.29;100745.69;4970097;28;7415;-82
2023/12/19 12:25:09;;;;;;;;;;;;;;;12.22;56.81;100749.91;4984336;28;7155;-83
2023/12/19 12:27:34;;;;;;;;;;;;;;;12.15;56.95;100750.44;4989992;28;7060;-84
2023/12/19 12:30:00;;;;;;;;;;;;;;;12.08;56.89;100757.88;4999214;28;7121;-82
2023/12/19 12:32:26;;;;;;;;;;;;;;;12.01;57.12;100749.75;4984018;28;6848;-82
2023/12/19 12:34:52;;;;;;;;;;;;;;;11.93;56.93;100749.38;4963006;28;7232;-82
2023/12/19 12:37:18;;;;;;;;;;;;;;;11.87;57.18;100736.25;4966127;28;7435;-83
2023/12/19 12:39:45;;;;;;;;;;;;;;;11.84;57.97;100726.72;4980913;28;6804;-83
2023/12/19 12:42:13;;;;;;;;;;;;;;;11.86;57.41;100729.34;4980398;28;6936;-82
2023/12/19 12:44:39;;;;;;;;;;;;;;;11.91;57.58;100720.19;4980942;28;6986;-82
2023/12/19 12:47:08;;;;;;;;;;;;;;;11.99;57.67;100725.69;4979254;28;7131;-82
2023/12/19 12:49:35;;;;;;;;;;;;;;;12.05;57.66;100705.47;4980738;28;8567;-83